Latest Weather Observations for Mortlake

IDV60801

Issued at 11:02 pm EST Friday 22 May 2015 (issued every 30 minutes, with the page automatically refreshed every 10 minutes)

About weather observations | Map of weather stations | Latest weather observations for VIC | Other Formats
Station Details ID: 090176 Name: MORTLAKE RACECOURSE Lat: -38.07 Lon: 142.77 Height: 130.0 m
Data from the previous 72 hours. | See also: Recent months at Mortlake
Date/Time
EST
Temp
°C
App
Temp
°C
Dew
Point
Rel
Hum
%
Delta-T
°C
Wind Press
QNH
hPa
Press
MSL
hPa
Rain
since 9 am
mm
Dir
 
Spd
km/h
Gust
km/h
Spd
kts
Gust
kts
22/11:00pm 9.4 7.7 7.5 88 0.9 SSE 6 6 3 3 1033.0 1033.1 0.0
22/10:30pm 9.6 8.3 7.5 87 1.0 SSE 4 7 2 4 1032.9 1033.0 0.0
22/10:00pm 9.3 7.9 7.4 88 0.9 S 4 11 2 6 1033.0 1033.1 0.0
22/09:30pm 9.1 8.1 7.5 90 0.8 S 2 4 1 2 1033.1 1033.2 0.0
22/09:00pm 9.3 7.5 7.3 87 0.9 S 6 9 3 5 1033.0 1033.1 0.0
22/08:30pm 9.4 7.4 7.2 86 1.0 SSE 7 9 4 5 1033.0 1033.1 0.0
22/08:00pm 9.6 6.4 6.9 83 1.3 SE 13 20 7 11 1032.8 1032.9 0.0
22/07:30pm 9.5 6.4 7.3 86 1.0 S 13 20 7 11 1032.7 1032.8 0.0
22/07:00pm 9.9 6.9 7.5 85 1.1 S 13 20 7 11 1032.4 1032.5 0.0
22/06:30pm 9.9 6.9 7.5 85 1.2 SSE 13 22 7 12 1032.2 1032.3 0.0
22/06:00pm 10.0 7.5 8.1 88 0.9 SSE 11 15 6 8 1032.1 1032.2 0.0
22/05:30pm 10.1 7.9 7.9 86 1.1 SSE 9 15 5 8 1032.0 1032.1 0.0
22/05:00pm 10.3 7.6 7.4 82 1.4 SSE 11 17 6 9 1031.7 1031.8 0.0
22/04:30pm 10.6 7.2 7.7 82 1.4 SSE 15 26 8 14 1031.5 1031.6 0.0
22/04:00pm 10.9 7.6 8.0 82 1.4 SSE 15 20 8 11 1031.4 1031.5 0.0
22/03:30pm 11.1 6.4 7.8 80 1.6 SSE 22 30 12 16 1031.2 1031.3 0.0
22/03:00pm 11.4 7.4 8.4 82 1.5 S 19 24 10 13 1031.1 1031.2 0.0
22/02:30pm 11.4 7.9 8.6 83 1.4 S 17 22 9 12 1031.1 1031.2 0.0
22/02:00pm 11.5 8.1 7.8 78 1.8 S 15 24 8 13 1031.0 1031.1 0.0
22/01:30pm 11.6 7.8 7.5 76 2.0 SSE 17 24 9 13 1031.0 1031.1 0.0
22/01:00pm 11.8 8.2 8.3 79 1.7 SSE 17 22 9 12 1031.0 1031.1 0.0
22/12:30pm 11.6 8.6 7.9 78 1.8 SE 13 20 7 11 1031.2 1031.3 0.0
22/12:00pm 11.8 7.8 8.3 79 1.7 SSE 19 26 10 14 1031.3 1031.4 0.0
22/11:30am 11.5 7.6 7.2 75 2.1 SSE 17 26 9 14 1031.6 1031.7 0.0
22/11:00am 11.5 8.1 7.8 78 1.8 SE 15 24 8 13 1031.6 1031.7 0.0
22/10:30am 11.5 8.2 8.2 80 1.6 SSE 15 20 8 11 1031.5 1031.6 0.0
22/10:00am 11.1 8.0 8.7 85 1.2 SSE 15 20 8 11 1031.2 1031.3 0.0
22/09:30am 11.0 8.7 9.1 88 1.0 SSE 11 17 6 9 1031.0 1031.1 0.0
22/09:00am 10.7 8.1 9.5 92 0.6 SSE 13 19 7 10 1030.8 1030.9 2.0
22/08:30am 10.5 6.8 9.4 93 0.6 SSE 19 26 10 14 1030.6 1030.7 2.0
22/08:00am 9.9 6.6 9.4 97 0.2 S 17 22 9 12 1030.3 1030.4 2.0
22/07:30am 9.5 6.1 9.2 98 0.1 S 17 20 9 11 1030.1 1030.2 2.0
22/07:00am 9.2 6.5 9.1 99 0.0 SSW 13 15 7 8 1029.6 1029.8 2.0
22/06:30am 9.0 7.4 8.9 99 0.0 S 7 9 4 5 1029.4 1029.6 2.0
22/06:00am 9.0 6.7 8.9 99 0.0 S 11 13 6 7 1029.1 1029.3 2.0
22/05:30am 9.0 7.1 8.9 99 0.0 SSW 9 11 5 6 1029.0 1029.2 2.0
22/05:00am 9.0 7.1 8.9 99 0.0 SSE 9 11 5 6 1028.7 1028.8 2.0
22/04:30am 8.4 6.3 8.3 99 0.0 S 9 11 5 6 1028.6 1028.7 2.0
22/04:00am 8.0 6.4 7.9 99 0.0 S 6 7 3 4 1028.5 1028.6 2.0
22/03:30am 6.2 5.3 6.1 99 0.0 CALM 0 0 0 0 1028.5 1028.6 2.0
22/03:00am 5.9 3.8 5.8 99 0.0 SSW 6 6 3 3 1028.6 1028.7 2.0
22/02:30am 6.3 4.7 6.2 99 0.0 S 4 6 2 3 1028.4 1028.5 2.0
22/02:00am 7.1 4.7 7.0 99 0.0 S 9 11 5 6 1028.1 1028.2 2.0
22/01:30am 8.2 5.7 8.1 99 0.0 S 11 13 6 7 1028.0 1028.1 2.0
22/01:00am 9.0 6.3 8.9 99 0.0 S 13 17 7 9 1028.1 1028.2 2.0
22/12:30am 9.7 7.9 9.6 99 0.1 S 9 13 5 7 1028.1 1028.2 2.0
22/12:00am 9.7 7.9 9.4 98 0.1 S 9 11 5 6 1028.1 1028.2 2.0
 
Date/Time
EST
Temp
°C
App
Temp
°C
Dew
Point
Rel
Hum
%
Delta-T
°C
Wind Press
QNH
hPa
Press
MSL
hPa
Rain
since 9 am
mm
Dir
 
Spd
km/h
Gust
km/h
Spd
kts
Gust
kts
21/11:30pm 9.8 7.6 9.5 98 0.2 S 11 15 6 8 1028.0 1028.1 2.0
21/11:00pm 9.9 6.9 9.4 97 0.2 S 15 19 8 10 1027.9 1028.0 2.0
21/10:30pm 9.3 7.1 9.2 99 0.0 S 11 17 6 9 1027.9 1028.0 2.0
21/10:00pm 9.4 7.6 9.3 99 0.0 S 9 13 5 7 1027.9 1028.0 2.0
21/09:30pm 8.9 6.6 8.9 100 0.0 S 11 13 6 7 1027.8 1027.9 2.0
21/09:00pm 7.8 5.6 7.7 99 0.0 SSW 9 11 5 6 1027.7 1027.8 2.0
21/08:30pm 8.2 6.1 8.1 99 0.0 S 9 13 5 7 1027.4 1027.5 2.0
21/08:00pm 8.0 5.8 7.9 99 0.0 SSW 9 11 5 6 1027.2 1027.3 2.0
21/07:30pm 8.3 6.2 8.2 99 0.0 SSW 9 11 5 6 1027.0 1027.1 2.0
21/07:00pm 8.3 6.2 8.2 99 0.0 SSW 9 9 5 5 1026.7 1026.8 2.0
21/06:30pm 9.1 7.2 9.0 99 0.0 S 9 11 5 6 1026.5 1026.6 2.0
21/06:00pm 10.1 8.4 10.0 99 0.1 SSE 9 13 5 7 1026.3 1026.4 2.0
21/05:30pm 10.1 7.7 10.0 99 0.1 S 13 15 7 8 1025.9 1026.0 2.0
21/05:00pm 10.9 7.5 10.7 99 0.1 S 19 24 10 13 1025.5 1025.6 2.0
21/04:30pm 11.6 8.8 11.4 99 0.1 S 17 32 9 17 1025.2 1025.3 2.0
21/04:00pm 11.2 8.3 11.0 99 0.1 S 17 20 9 11 1025.2 1025.3 2.0
21/03:30pm 12.3 9.6 11.8 97 0.3 SSW 17 22 9 12 1024.8 1024.9 1.4
21/03:00pm 11.3 7.9 11.1 99 0.1 SSE 20 32 11 17 1024.6 1024.7 1.4
21/02:30pm 11.4 8.6 11.2 99 0.1 SSE 17 28 9 15 1024.5 1024.6 1.0
21/02:00pm 12.1 8.8 10.8 92 0.7 S 19 24 10 13 1024.4 1024.5 1.0
21/01:30pm 11.0 8.8 10.8 99 0.1 S 13 17 7 9 1024.6 1024.7 1.0
21/01:00pm 11.8 10.9 11.3 97 0.3 SSE 7 15 4 8 1024.7 1024.8 0.2
21/12:30pm 11.1 8.9 10.9 99 0.1 S 13 19 7 10 1025.1 1025.2 0.2
21/12:00pm 10.7 7.3 10.5 99 0.1 S 19 24 10 13 1025.3 1025.4 0.2
21/11:30am 10.6 9.1 10.4 99 0.1 S 9 15 5 8 1025.6 1025.7 0.2
21/11:00am 10.6 7.9 10.4 99 0.1 SSE 15 19 8 10 1025.7 1025.8 0.0
21/10:30am 10.8 9.2 10.3 97 0.3 S 9 15 5 8 1025.5 1025.6 0.0
21/10:00am 10.1 8.1 10.0 99 0.1 SSW 11 17 6 9 1025.3 1025.4 0.0
21/09:30am 9.9 7.0 9.6 98 0.2 S 15 20 8 11 1025.1 1025.2 0.0
21/09:00am 9.7 7.5 9.4 98 0.1 SSW 11 13 6 7 1024.9 1025.0 5.0
21/08:30am 8.9 6.9 8.8 99 0.0 SSW 9 13 5 7 1024.6 1024.7 5.0
21/08:00am 8.7 7.2 8.6 99 0.0 SSW 6 7 3 4 1024.3 1024.4 5.0
21/07:30am 8.7 7.0 8.4 98 0.1 SSW 7 13 4 7 1023.9 1024.0 5.0
21/07:00am 8.4 6.7 8.3 99 0.0 SSW 7 9 4 5 1023.7 1023.8 5.0
21/06:30am 8.4 6.8 8.0 97 0.2 SW 6 9 3 5 1023.4 1023.5 5.0
21/06:00am 8.5 6.7 8.1 97 0.2 SW 7 9 4 5 1023.1 1023.2 5.0
21/05:30am 8.3 7.1 8.2 99 0.0 SSW 4 6 2 3 1022.8 1022.9 5.0
21/05:00am 7.9 7.0 7.8 99 0.0 SSW 2 4 1 2 1022.5 1022.6 5.0
21/04:30am 8.2 7.0 8.1 99 0.0 SSW 4 6 2 3 1022.3 1022.3 5.0
21/04:00am 8.3 6.7 8.2 99 0.0 SSW 6 7 3 4 1022.2 1022.2 5.0
21/03:30am 8.4 5.9 8.0 97 0.2 S 11 15 6 8 1022.2 1022.2 5.0
21/03:00am 8.2 6.6 8.1 99 0.0 SW 6 7 3 4 1022.2 1022.2 5.0
21/02:30am 8.2 7.0 7.9 98 0.1 SW 4 6 2 3 1022.1 1022.1 5.0
21/02:00am 8.3 6.4 7.7 96 0.3 SW 7 11 4 6 1021.9 1021.9 5.0
21/01:30am 8.5 5.5 7.7 95 0.4 SSW 13 19 7 10 1022.0 1022.0 5.0
21/01:00am 8.2 6.0 7.9 98 0.1 SSW 9 13 5 7 1022.0 1022.0 5.0
21/12:30am 8.0 5.8 7.9 99 0.0 S 9 15 5 8 1022.0 1022.0 5.0
21/12:00am 8.0 4.3 7.9 99 0.0 SSW 17 24 9 13 1021.9 1021.9 5.0
 
Date/Time
EST
Temp
°C
App
Temp
°C
Dew
Point
Rel
Hum
%
Delta-T
°C
Wind Press
QNH
hPa
Press
MSL
hPa
Rain
since 9 am
mm
Dir
 
Spd
km/h
Gust
km/h
Spd
kts
Gust
kts
20/11:30pm 8.3 5.4 8.2 99 0.0 SSW 13 19 7 10 1021.7 1021.8 5.0
20/11:00pm 8.4 5.2 8.3 99 0.0 SSW 15 22 8 12 1021.6 1021.7 5.0
20/10:30pm 8.5 5.7 8.4 99 0.0 SSW 13 19 7 10 1021.4 1021.5 5.0
20/10:00pm 8.7 6.3 8.6 99 0.0 SW 11 13 6 7 1021.2 1021.3 4.8
20/09:30pm 8.6 6.2 8.5 99 0.0 SSW 11 15 6 8 1021.0 1021.1 4.8
20/09:00pm 8.7 5.5 8.6 99 0.0 SW 15 20 8 11 1020.6 1020.7 4.8
20/08:30pm 8.7 5.2 8.6 99 0.0 SW 17 20 9 11 1020.3 1020.4 4.8
20/08:00pm 8.8 5.3 8.7 99 0.0 SSW 17 20 9 11 1020.0 1020.1 4.8
20/07:30pm 9.0 5.2 8.9 99 0.0 SSW 19 24 10 13 1019.7 1019.8 4.8
20/07:00pm 9.1 4.7 9.0 99 0.0 SSW 22 28 12 15 1019.2 1019.3 4.8
20/06:30pm 9.2 5.4 9.1 99 0.0 SSW 19 28 10 15 1018.7 1018.8 4.2
20/06:00pm 9.3 3.4 9.2 99 0.0 SSW 30 41 16 22 1018.0 1018.1 4.2
20/05:30pm 9.6 5.7 9.5 99 0.1 SSW 20 28 11 15 1017.3 1017.4 3.8
20/05:00pm 9.8 5.2 9.7 99 0.1 SSW 24 32 13 17 1016.8 1016.9 3.6
20/04:30pm 10.0 5.8 9.9 99 0.1 SSW 22 33 12 18 1016.4 1016.5 3.0
20/04:00pm 10.0 5.5 9.9 99 0.1 SW 24 35 13 19 1016.0 1016.1 3.0
20/03:30pm 10.1 5.2 10.0 99 0.1 SW 26 33 14 18 1015.6 1015.6 2.8
20/03:00pm 10.4 5.6 10.2 99 0.1 SW 26 33 14 18 1015.2 1015.2 2.8
20/02:30pm 10.7 6.0 10.5 99 0.1 SW 26 37 14 20 1014.5 1014.5 2.8
20/02:00pm 10.9 5.4 10.7 99 0.1 SW 30 41 16 22 1014.3 1014.3 2.4
20/01:30pm 11.2 6.2 11.0 99 0.1 SW 28 41 15 22 1013.7 1013.8 2.0
20/01:00pm 11.2 5.3 11.0 99 0.1 SW 33 44 18 24 1013.4 1013.5 1.6
20/12:30pm 11.3 5.0 11.1 99 0.1 SW 35 44 19 24 1013.1 1013.2 1.4
20/12:00pm 11.1 4.8 10.9 99 0.1 SW 35 50 19 27 1012.8 1012.9 1.0
20/11:30am 11.4 5.1 11.2 99 0.1 SW 35 50 19 27 1012.5 1012.6 0.8
20/11:00am 11.5 5.6 11.3 99 0.1 SW 33 46 18 25 1012.0 1012.1 0.6
20/10:30am 12.2 7.1 12.0 99 0.1 SW 30 41 16 22 1011.3 1011.4 0.6
20/10:00am 12.6 9.2 12.4 99 0.1 SW 22 35 12 19 1010.8 1010.9 0.2
20/09:30am 12.5 10.0 12.3 99 0.1 W 17 26 9 14 1010.4 1010.5 0.0
20/09:00am 12.4 9.3 12.2 99 0.1 NW 20 28 11 15 1009.8 1009.9 7.4
20/08:30am 12.0 9.3 11.8 99 0.1 NW 17 24 9 13 1009.4 1009.4 7.4
20/08:00am 11.6 8.2 11.4 99 0.1 NW 20 28 11 15 1008.9 1008.9 7.4
20/07:30am 11.4 8.2 11.2 99 0.1 NW 19 24 10 13 1008.3 1008.3 7.4
20/07:00am 11.7 7.8 10.9 95 0.4 NW 22 28 12 15 1008.0 1008.0 7.4
20/06:30am 11.9 7.7 11.0 94 0.5 NW 24 32 13 17 1007.6 1007.6 7.4
20/06:00am 12.4 7.3 10.6 89 0.9 NW 28 39 15 21 1007.3 1007.3 7.4
20/05:30am 12.4 8.6 11.3 93 0.6 NW 22 35 12 19 1006.9 1006.9 7.4
20/05:00am 12.9 8.9 11.8 93 0.6 NW 24 32 13 17 1006.6 1006.6 7.4
20/04:30am 12.7 10.3 12.5 99 0.1 NW 17 24 9 13 1006.3 1006.3 7.4
20/04:00am 12.1 10.2 11.9 99 0.1 NW 13 17 7 9 1006.4 1006.4 7.4
20/03:30am 12.2 10.0 12.0 99 0.1 NNW 15 20 8 11 1006.1 1006.1 7.4
20/03:00am 12.6 9.6 12.4 99 0.1 NW 20 28 11 15 1005.9 1005.9 7.4
20/02:30am 13.1 10.2 12.9 99 0.1 NW 20 28 11 15 1005.9 1005.9 7.0
20/02:00am 13.3 10.7 13.1 99 0.1 NNW 19 24 10 13 1005.7 1005.8 7.0
20/01:30am 13.2 10.9 13.0 99 0.1 N 17 24 9 13 1005.6 1005.7 7.0
20/01:00am 13.4 10.8 13.2 99 0.1 N 19 28 10 15 1005.7 1005.8 6.8
20/12:30am 13.4 10.6 13.2 99 0.1 N 20 28 11 15 1005.6 1005.7 6.0
20/12:00am 13.3 10.7 13.1 99 0.1 N 19 24 10 13 1006.0 1006.0 6.0
 
Date/Time
EST
Temp
°C
App
Temp
°C
Dew
Point
Rel
Hum
%
Delta-T
°C
Wind Press
QNH
hPa
Press
MSL
hPa
Rain
since 9 am
mm
Dir
 
Spd
km/h
Gust
km/h
Spd
kts
Gust
kts
19/11:30pm 13.3 11.0 13.1 99 0.1 N 17 24 9 13 1006.5 1006.5 6.0

Other Formats:

Comma delimited format used in spreadsheet applications
http://www.bom.gov.au/fwo/IDV60801/IDV60801.94840.axf

JavaScript Object Notation format (JSON) in row-major order
http://www.bom.gov.au/fwo/IDV60801/IDV60801.94840.json